Time;durP1;ratioP1;P1;durP2;ratioP2;P2;SDS_P1;SDS_P2;PMS_P1;PMS_P2;Temp;Humidity;BMP_temperature;BMP_pressure;BME280_temperature;BME280_humidity;BME280_pressure;Samples;Min_cycle;Max_cycle;Signal;HPM_P1;HPM_P2
2022/05/30 00:02:19;;;;;;;17.90;16.00;;;;;;;10.11;100.00;98339.66;105262;1268;74506;-72
2022/05/30 00:04:46;;;;;;;17.70;15.70;;;;;;;10.11;100.00;98345.15;105227;1268;61263;-74
2022/05/30 00:07:13;;;;;;;17.50;15.80;;;;;;;10.12;100.00;98345.66;105239;1268;61145;-74
2022/05/30 00:09:39;;;;;;;17.60;16.10;;;;;;;10.14;100.00;98339.14;105207;1268;61410;-73
2022/05/30 00:12:06;;;;;;;17.40;15.80;;;;;;;10.14;100.00;98340.01;105237;1268;61379;-75
2022/05/30 00:14:33;;;;;;;16.30;14.70;;;;;;;10.13;100.00;98335.99;105247;1268;74349;-74
2022/05/30 00:17:01;;;;;;;16.40;14.80;;;;;;;10.13;100.00;98334.21;105218;1268;61360;-74
2022/05/30 00:19:27;;;;;;;17.80;15.60;;;;;;;10.12;100.00;98334.64;105240;1268;61217;-73
2022/05/30 00:21:55;;;;;;;16.80;15.20;;;;;;;10.10;100.00;98332.44;105178;1268;61347;-73
2022/05/30 00:24:23;;;;;;;17.20;15.50;;;;;;;10.11;100.00;98332.22;105429;1268;68153;-74
2022/05/30 00:26:49;;;;;;;18.20;16.10;;;;;;;10.11;100.00;98330.43;105302;1268;72202;-74
2022/05/30 00:29:16;;;;;;;19.40;17.40;;;;;;;10.13;100.00;98328.17;105226;1268;61336;-74
2022/05/30 00:31:42;;;;;;;19.30;17.30;;;;;;;10.14;100.00;98331.13;105212;1268;61294;-74
2022/05/30 00:34:09;;;;;;;17.70;16.00;;;;;;;10.14;100.00;98324.21;105245;1268;76345;-73
2022/05/30 00:36:35;;;;;;;18.70;16.80;;;;;;;10.12;100.00;98316.69;105209;1268;68855;-73
2022/05/30 00:39:02;;;;;;;19.50;17.60;;;;;;;10.12;100.00;98319.89;105195;1268;74443;-74
2022/05/30 00:41:28;;;;;;;17.00;15.50;;;;;;;10.10;100.00;98315.05;105200;1268;61313;-74
2022/05/30 00:43:55;;;;;;;20.30;18.00;;;;;;;10.09;100.00;98315.71;105071;1268;234050;-73
2022/05/30 00:46:22;;;;;;;19.70;17.90;;;;;;;10.08;100.00;98312.58;104981;1268;76023;-73
2022/05/30 00:48:53;;;;;;;18.10;16.40;;;;;;;10.08;100.00;98310.77;105242;1268;68368;-74
2022/05/30 00:51:39;;;;;;;;;;;;;;;10.08;100.00;98312.94;105216;1268;73192;-73
2022/05/30 00:54:08;;;;;;;15.80;14.20;;;;;;;10.07;100.00;98315.11;104419;1276;61465;-74
2022/05/30 00:56:40;;;;;;;17.00;15.40;;;;;;;10.08;100.00;98317.02;104544;1277;61344;-72
2022/05/30 00:59:08;;;;;;;18.20;16.20;;;;;;;10.07;100.00;98311.61;104493;1278;76105;-74
2022/05/30 01:01:36;;;;;;;17.40;15.80;;;;;;;10.06;100.00;98313.21;104630;1276;69289;-74
2022/05/30 01:06:53;;;;;;;16.70;15.20;;;;;;;10.06;100.00;98312.70;104485;1277;61340;-74
2022/05/30 01:09:30;;;;;;;18.40;16.70;;;;;;;10.06;100.00;98306.16;104507;1277;62170;-73
2022/05/30 01:12:03;;;;;;;19.50;17.70;;;;;;;10.06;100.00;98305.98;104581;1276;73778;-73
2022/05/30 01:14:33;;;;;;;19.30;17.20;;;;;;;10.06;100.00;98305.98;104488;1277;68931;-73
2022/05/30 01:17:00;;;;;;;18.70;16.80;;;;;;;10.06;100.00;98307.96;104578;1277;72249;-73
2022/05/30 01:19:37;;;;;;;19.40;17.50;;;;;;;10.04;100.00;98303.61;104578;1276;61477;-74
2022/05/30 01:22:21;;;;;;;21.50;19.50;;;;;;;10.04;100.00;98307.56;104605;1276;62378;-73
2022/05/30 01:25:01;;;;;;;20.90;18.90;;;;;;;10.03;100.00;98300.14;104606;1276;75240;-74
2022/05/30 01:27:33;;;;;;;20.30;18.40;;;;;;;10.03;100.00;98294.98;104513;1277;69352;-74
2022/05/30 01:30:12;;;;;;;19.40;17.60;;;;;;;10.04;100.00;98293.35;104558;1277;73536;-72
2022/05/30 01:32:38;;;;;;;16.60;15.20;;;;;;;10.03;100.00;98296.83;105021;1271;61603;-73
2022/05/30 01:35:06;;;;;;;17.90;16.20;;;;;;;10.02;100.00;98289.91;105113;1270;61209;-73
2022/05/30 01:37:32;;;;;;;15.20;13.70;;;;;;;9.99;100.00;98283.58;105183;1271;76344;-75
2022/05/30 01:39:59;;;;;;;15.90;14.30;;;;;;;9.97;100.00;98283.42;105255;1271;68655;-72
2022/05/30 01:42:25;;;;;;;16.10;14.60;;;;;;;9.94;100.00;98276.87;105228;1271;74232;-75
2022/05/30 01:44:52;;;;;;;18.20;16.00;;;;;;;9.93;100.00;98277.70;105193;1271;61388;-73
2022/05/30 01:47:19;;;;;;;15.10;13.50;;;;;;;9.90;100.00;98279.86;104886;1271;61861;-73
2022/05/30 01:49:45;;;;;;;17.70;15.90;;;;;;;9.89;100.00;98277.41;105277;1271;61250;-73
2022/05/30 01:52:12;;;;;;;15.90;14.40;;;;;;;9.88;100.00;98278.39;105025;1271;61214;-73
2022/05/30 01:54:38;;;;;;;16.40;14.80;;;;;;;9.87;100.00;98279.02;105144;1271;61403;-74
2022/05/30 01:57:05;;;;;;;15.80;14.50;;;;;;;9.87;100.00;98277.77;104965;1271;61299;-72
2022/05/30 01:59:32;;;;;;;17.00;15.10;;;;;;;9.88;100.00;98275.05;105075;1270;61257;-74
2022/05/30 02:01:58;;;;;;;16.40;14.90;;;;;;;9.87;100.00;98274.91;105208;1271;74848;-75
2022/05/30 02:04:25;;;;;;;16.10;14.70;;;;;;;9.89;100.00;98275.86;105184;1271;61150;-73
2022/05/30 02:06:51;;;;;;;16.20;14.80;;;;;;;9.90;100.00;98275.40;105177;1271;61374;-73
2022/05/30 02:09:18;;;;;;;15.70;14.10;;;;;;;9.92;100.00;98280.10;105184;1271;61291;-73
2022/05/30 02:11:44;;;;;;;14.50;13.20;;;;;;;9.90;100.00;98279.30;105113;1271;61392;-74
2022/05/30 02:14:11;;;;;;;16.00;14.40;;;;;;;9.86;100.00;98279.09;105210;1270;61325;-74
2022/05/30 02:19:22;;;;;;;13.80;12.20;;;;;;;9.84;100.00;98274.44;105202;1271;74157;-73
2022/05/30 02:21:49;;;;;;;17.50;13.10;;;;;;;9.83;100.00;98276.85;105236;1271;61361;-73
2022/05/30 02:24:15;;;;;;;16.90;14.60;;;;;;;9.81;100.00;98279.34;105152;1271;61368;-73
2022/05/30 02:26:42;;;;;;;15.00;13.60;;;;;;;9.78;100.00;98281.84;105191;1271;75326;-74
2022/05/30 02:29:10;;;;;;;14.40;12.90;;;;;;;9.77;100.00;98274.30;105299;1270;68257;-74
2022/05/30 02:31:37;;;;;;;13.80;12.40;;;;;;;9.75;100.00;98274.40;105599;1271;73699;-73
2022/05/30 02:36:51;;;;;;;11.90;10.80;;;;;;;9.73;100.00;98279.89;105228;1268;61301;-74
2022/05/30 02:39:20;;;;;;;12.70;11.50;;;;;;;9.74;100.00;98279.52;105252;1268;76114;-73
2022/05/30 02:41:48;;;;;;;11.90;10.80;;;;;;;9.72;100.00;98281.55;105406;1266;70362;-74
2022/05/30 02:44:18;;;;;;;11.40;9.40;;;;;;;9.72;100.00;98282.64;105273;1268;72293;-73
2022/05/30 02:46:47;;;;;;;11.60;10.60;;;;;;;9.72;100.00;98287.29;105250;1268;61397;-74
2022/05/30 02:49:14;;;;;;;11.60;10.40;;;;;;;9.71;100.00;98284.52;105375;1268;61263;-73
2022/05/30 02:51:40;;;;;;;11.50;10.40;;;;;;;9.71;100.00;98282.37;105038;1268;74583;-72
2022/05/30 02:54:07;;;;;;;10.60;9.70;;;;;;;9.70;100.00;98280.70;105254;1268;68794;-73
2022/05/30 02:56:35;;;;;;;12.00;10.90;;;;;;;9.69;100.00;98283.02;105228;1268;73209;-74
2022/05/30 02:59:02;;;;;;;11.90;10.70;;;;;;;9.68;100.00;98285.71;105255;1268;61410;-73
2022/05/30 03:01:31;;;;;;;11.40;10.50;;;;;;;9.68;100.00;98286.48;105353;1268;61226;-74
2022/05/30 03:03:59;;;;;;;10.90;9.80;;;;;;;9.67;100.00;98281.59;105289;1268;73569;-74
2022/05/30 03:06:26;;;;;;;11.80;10.50;;;;;;;9.65;100.00;98286.66;105057;1268;70678;-73
2022/05/30 03:08:52;;;;;;;11.20;10.10;;;;;;;9.63;100.00;98287.02;105219;1267;61386;-74
2022/05/30 03:11:19;;;;;;;11.80;10.50;;;;;;;9.62;100.00;98287.96;105276;1268;61316;-73
2022/05/30 03:13:45;;;;;;;11.30;10.20;;;;;;;9.62;100.00;98289.77;105198;1268;61160;-73
2022/05/30 03:16:12;;;;;;;9.50;8.70;;;;;;;9.62;100.00;98287.11;105231;1268;75287;-73
2022/05/30 03:18:39;;;;;;;10.40;8.60;;;;;;;9.61;100.00;98288.91;105226;1268;61255;-73
2022/05/30 03:21:05;;;;;;;9.70;8.70;;;;;;;9.61;100.00;98289.81;105221;1268;74272;-73
2022/05/30 03:23:32;;;;;;;8.30;7.60;;;;;;;9.62;100.00;98289.20;105196;1268;61311;-74
2022/05/30 03:25:59;;;;;;;8.90;7.60;;;;;;;9.62;100.00;98295.81;105212;1268;61288;-72
2022/05/30 03:28:26;;;;;;;7.80;7.10;;;;;;;9.61;100.00;98298.33;105241;1268;75671;-75
2022/05/30 03:30:52;;;;;;;6.80;6.00;;;;;;;9.60;100.00;98302.66;105219;1268;61163;-72
2022/05/30 03:33:19;;;;;;;8.20;6.60;;;;;;;9.59;100.00;98304.52;105031;1268;74417;-73
2022/05/30 03:35:47;;;;;;;7.00;5.60;;;;;;;9.58;100.00;98307.43;105230;1268;61284;-73
2022/05/30 03:38:13;;;;;;;6.70;6.00;;;;;;;9.56;100.00;98303.49;105073;1268;61239;-74
2022/05/30 03:40:40;;;;;;;6.20;5.60;;;;;;;9.55;100.00;98310.11;105256;1268;61388;-74
2022/05/30 03:43:09;;;;;;;7.40;6.40;;;;;;;9.55;100.00;98308.56;105256;1268;70253;-72
2022/05/30 03:45:37;;;;;;;6.50;5.90;;;;;;;9.54;100.00;98310.07;105191;1268;74173;-73
2022/05/30 03:48:04;;;;;;;6.60;5.90;;;;;;;9.52;100.00;98315.49;105271;1268;61278;-76
2022/05/30 03:50:32;;;;;;;6.60;6.00;;;;;;;9.52;100.00;98312.88;105220;1268;61226;-73
2022/05/30 03:53:05;;;;;;;7.60;5.20;;;;;;;9.51;100.00;98314.38;105206;1268;76031;-74
2022/05/30 03:55:42;;;;;;;5.80;5.00;;;;;;;9.50;100.00;98311.96;105211;1268;69231;-75
2022/05/30 03:58:11;;;;;;;7.80;6.30;;;;;;;9.49;100.00;98309.89;105605;1268;73349;-74
2022/05/30 04:00:40;;;;;;;7.70;6.90;;;;;;;9.47;100.00;98303.63;105310;1268;61383;-74
2022/05/30 04:03:07;;;;;;;7.60;6.90;;;;;;;9.44;100.00;98301.00;104978;1268;62081;-74
2022/05/30 04:05:34;;;;;;;8.00;6.90;;;;;;;9.44;100.00;98306.64;105264;1268;74443;-74
2022/05/30 04:08:01;;;;;;;7.90;6.60;;;;;;;9.46;100.00;98306.23;105266;1268;70376;-75
2022/05/30 04:10:28;;;;;;;10.50;7.10;;;;;;;9.45;100.00;98305.52;105258;1268;72770;-75
2022/05/30 04:13:05;;;;;;;9.00;7.60;;;;;;;9.43;100.00;98307.08;105065;1268;61354;-74
2022/05/30 04:15:32;;;;;;;9.90;8.90;;;;;;;9.43;100.00;98305.84;105234;1268;61343;-78
2022/05/30 04:17:59;;;;;;;9.20;8.40;;;;;;;9.45;100.00;98308.05;105033;1268;75115;-74
2022/05/30 04:20:26;;;;;;;10.10;9.10;;;;;;;9.45;100.00;98309.07;105256;1268;61326;-74
2022/05/30 04:22:52;;;;;;;10.80;7.80;;;;;;;9.49;100.00;98306.86;105176;1271;73179;-73
2022/05/30 04:25:19;;;;;;;9.30;8.40;;;;;;;9.52;100.00;98300.61;105216;1268;61198;-73
2022/05/30 04:27:46;;;;;;;9.40;8.40;;;;;;;9.56;100.00;98299.96;105231;1268;61343;-73
2022/05/30 04:30:13;;;;;;;10.00;9.00;;;;;;;9.61;100.00;98298.91;105206;1268;61386;-74
2022/05/30 04:32:40;;;;;;;9.80;8.90;;;;;;;9.64;100.00;98299.35;105057;1268;69665;-73
2022/05/30 04:35:09;;;;;;;9.70;8.80;;;;;;;9.71;100.00;98299.23;105237;1268;74102;-73
2022/05/30 04:37:35;;;;;;;8.90;7.90;;;;;;;9.77;100.00;98301.77;105273;1268;61420;-73
2022/05/30 04:40:03;;;;;;;8.80;7.90;;;;;;;9.83;100.00;98302.73;105241;1268;61194;-73
2022/05/30 04:42:29;;;;;;;8.80;7.90;;;;;;;9.85;100.00;98302.80;105239;1268;76347;-73
2022/05/30 04:44:56;;;;;;;9.20;8.30;;;;;;;9.86;100.00;98298.74;105223;1268;67617;-74
2022/05/30 04:47:22;;;;;;;8.20;7.20;;;;;;;9.87;100.00;98301.71;105226;1268;61222;-73
2022/05/30 04:49:50;;;;;;;8.40;7.70;;;;;;;9.90;100.00;98296.38;104993;1268;61585;-74
2022/05/30 04:52:17;;;;;;;8.50;7.80;;;;;;;9.95;100.00;98294.38;105219;1268;61298;-74
2022/05/30 04:54:43;;;;;;;9.20;8.20;;;;;;;10.03;100.00;98291.15;105191;1268;75108;-74
2022/05/30 04:57:10;;;;;;;8.40;7.60;;;;;;;10.08;100.00;98293.20;105236;1268;61173;-73
2022/05/30 04:59:41;;;;;;;9.80;8.70;;;;;;;10.10;100.00;98296.66;105231;1268;73118;-74
2022/05/30 05:02:09;;;;;;;8.40;7.70;;;;;;;10.10;100.00;98292.38;105213;1268;62007;-73
2022/05/30 05:04:38;;;;;;;8.40;7.80;;;;;;;10.09;100.00;98293.52;105223;1268;61169;-74
2022/05/30 05:07:05;;;;;;;9.20;8.40;;;;;;;10.09;100.00;98295.61;105279;1268;74711;-73
2022/05/30 05:09:56;;;;;;;10.30;9.40;;;;;;;10.12;100.00;98296.84;105294;1268;70605;-73
2022/05/30 05:12:23;;;;;;;10.10;9.00;;;;;;;10.20;100.00;98302.48;105246;1268;73168;-73
2022/05/30 05:14:49;;;;;;;10.60;9.50;;;;;;;10.29;100.00;98304.98;105202;1268;61277;-73
2022/05/30 05:17:16;;;;;;;11.70;10.50;;;;;;;10.39;100.00;98300.63;105251;1268;61306;-74
2022/05/30 05:19:42;;;;;;;11.40;10.30;;;;;;;10.51;100.00;98295.10;105217;1268;61383;-75
2022/05/30 05:22:15;;;;;;;9.40;8.50;;;;;;;10.65;100.00;98297.70;105258;1268;61373;-75
2022/05/30 05:24:42;;;;;;;9.60;8.60;;;;;;;10.78;100.00;98302.74;105187;1268;72876;-73
2022/05/30 05:27:08;;;;;;;11.30;10.00;;;;;;;10.81;100.00;98307.85;105222;1268;61422;-74
2022/05/30 05:29:35;;;;;;;10.60;9.70;;;;;;;10.78;100.00;98314.13;105262;1268;61357;-79
2022/05/30 05:32:04;;;;;;;10.70;9.70;;;;;;;10.72;100.00;98314.77;105235;1268;76442;-81
2022/05/30 05:34:30;;;;;;;11.00;9.90;;;;;;;10.73;100.00;98314.52;105481;1268;69874;-78
2022/05/30 05:36:57;;;;;;;9.90;8.90;;;;;;;10.73;100.00;98316.31;105297;1268;74234;-78
2022/05/30 05:39:23;;;;;;;10.50;9.60;;;;;;;10.73;100.00;98315.98;105219;1268;61288;-80
2022/05/30 05:41:50;;;;;;;10.10;9.10;;;;;;;10.77;100.00;98319.20;105273;1268;61359;-80
2022/05/30 05:44:17;;;;;;;10.40;9.40;;;;;;;10.84;100.00;98323.45;105299;1268;74312;-81
2022/05/30 05:46:44;;;;;;;11.40;10.20;;;;;;;10.86;100.00;98323.27;105316;1268;70223;-80
2022/05/30 05:49:11;;;;;;;11.20;10.00;;;;;;;10.89;100.00;98326.91;105294;1267;73355;-80
2022/05/30 05:51:39;;;;;;;11.40;10.20;;;;;;;11.07;100.00;98328.34;105296;1268;61438;-81
2022/05/30 05:54:07;;;;;;;10.40;9.40;;;;;;;11.30;100.00;98329.88;105297;1268;61294;-80
2022/05/30 05:56:34;;;;;;;11.50;10.40;;;;;;;11.55;100.00;98330.15;105329;1268;75646;-81
2022/05/30 05:59:02;;;;;;;10.70;9.80;;;;;;;11.83;100.00;98331.65;105369;1268;69503;-81
2022/05/30 06:01:32;;;;;;;10.70;9.80;;;;;;;11.92;100.00;98339.45;105302;1267;75293;-79
2022/05/30 06:04:03;;;;;;;10.90;10.00;;;;;;;11.89;100.00;98336.33;105330;1268;61310;-79
2022/05/30 06:06:31;;;;;;;12.20;11.10;;;;;;;11.82;100.00;98335.77;105392;1268;61115;-77
2022/05/30 06:08:59;;;;;;;14.40;10.40;;;;;;;11.82;100.00;98340.43;105337;1268;75161;-80
2022/05/30 06:11:26;;;;;;;11.00;9.90;;;;;;;11.73;100.00;98341.14;105250;1268;69248;-81
2022/05/30 06:13:54;;;;;;;11.40;10.30;;;;;;;11.58;100.00;98346.49;105369;1268;61373;-80
2022/05/30 06:16:24;;;;;;;11.20;10.30;;;;;;;11.42;100.00;98344.52;105291;1268;61440;-80
2022/05/30 06:18:55;;;;;;;12.20;11.00;;;;;;;11.34;100.00;98342.39;105438;1267;61223;-80
2022/05/30 06:21:24;;;;;;;11.30;10.30;;;;;;;11.27;100.00;98347.23;105319;1268;76128;-80
2022/05/30 06:23:55;;;;;;;12.70;11.30;;;;;;;11.17;100.00;98347.84;105567;1268;69292;-81
2022/05/30 06:26:22;;;;;;;10.90;10.00;;;;;;;11.14;100.00;98349.30;105387;1268;74226;-80
2022/05/30 06:28:50;;;;;;;10.30;9.50;;;;;;;11.17;100.00;98352.30;105339;1266;61308;-80
2022/05/30 06:31:25;;;;;;;11.50;10.40;;;;;;;11.24;100.00;98352.84;105297;1268;62020;-82
2022/05/30 06:33:53;;;;;;;9.90;9.00;;;;;;;11.35;100.00;98349.73;105340;1268;73584;-80
2022/05/30 06:36:22;;;;;;;11.90;10.70;;;;;;;11.50;100.00;98355.66;105331;1267;70341;-82
2022/05/30 06:38:51;;;;;;;13.00;10.90;;;;;;;11.71;100.00;98358.98;105267;1268;72448;-81
2022/05/30 06:41:20;;;;;;;10.30;9.40;;;;;;;11.98;100.00;98356.79;105306;1268;61300;-81
2022/05/30 06:43:47;;;;;;;10.20;9.40;;;;;;;12.34;100.00;98359.66;105338;1268;61818;-81
2022/05/30 06:46:15;;;;;;;9.70;8.70;;;;;;;12.69;100.00;98366.10;105336;1268;76247;-80
2022/05/30 06:48:41;;;;;;;9.00;8.30;;;;;;;12.99;100.00;98367.96;105298;1268;69192;-81
2022/05/30 06:51:12;;;;;;;6.80;6.10;;;;;;;13.21;100.00;98368.94;105302;1268;74302;-78
2022/05/30 06:53:43;;;;;;;6.60;6.00;;;;;;;13.38;100.00;98372.79;105288;1268;61260;-80
2022/05/30 06:56:14;;;;;;;6.20;5.70;;;;;;;13.60;100.00;98370.27;105270;1268;61280;-79
2022/05/30 06:58:44;;;;;;;6.40;5.80;;;;;;;13.70;100.00;98366.34;105330;1268;74694;-79
2022/05/30 07:01:11;;;;;;;5.90;5.30;;;;;;;13.90;100.00;98362.96;105340;1268;68656;-80
2022/05/30 07:03:38;;;;;;;4.20;3.80;;;;;;;14.49;100.00;98360.95;105310;1268;72845;-79
2022/05/30 07:06:07;;;;;;;5.20;4.50;;;;;;;15.53;100.00;98359.70;105212;1268;61326;-79
2022/05/30 07:08:34;;;;;;;4.60;4.20;;;;;;;16.12;100.00;98356.70;105365;1268;61839;-80
2022/05/30 07:11:01;;;;;;;4.60;4.00;;;;;;;16.60;100.00;98357.03;105317;1267;76470;-79
2022/05/30 07:13:31;;;;;;;4.10;3.80;;;;;;;16.73;100.00;98358.85;105329;1268;69318;-79
2022/05/30 07:15:57;;;;;;;4.30;3.90;;;;;;;16.68;100.00;98363.09;105308;1268;73330;-80
2022/05/30 07:18:24;;;;;;;3.90;3.60;;;;;;;16.47;100.00;98361.62;105324;1268;61280;-80
2022/05/30 07:20:56;;;;;;;4.50;3.80;;;;;;;16.24;100.00;98355.48;105319;1268;61236;-80
2022/05/30 07:23:24;;;;;;;4.80;4.40;;;;;;;15.88;100.00;98355.91;105415;1268;74138;-79
2022/05/30 07:25:50;;;;;;;5.20;4.80;;;;;;;15.78;100.00;98359.75;105363;1268;70604;-79
2022/05/30 07:28:17;;;;;;;6.40;5.60;;;;;;;15.77;100.00;98363.42;105465;1268;73059;-81
2022/05/30 07:30:44;;;;;;;6.60;5.60;;;;;;;15.69;100.00;98363.84;105238;1268;61246;-79
2022/05/30 07:33:11;;;;;;;5.90;5.40;;;;;;;15.56;100.00;98366.29;105303;1268;61269;-81
2022/05/30 07:35:37;;;;;;;5.40;4.90;;;;;;;15.39;100.00;98373.00;105260;1268;61310;-79
2022/05/30 07:38:04;;;;;;;5.70;4.40;;;;;;;15.15;100.00;98375.86;105266;1268;61344;-78
2022/05/30 07:40:31;;;;;;;3.40;3.10;;;;;;;14.97;100.00;98375.61;105280;1268;61346;-79
2022/05/30 07:42:57;;;;;;;3.70;3.30;;;;;;;15.23;100.00;98376.84;105312;1268;61265;-78
2022/05/30 07:45:23;;;;;;;2.50;2.30;;;;;;;15.87;100.00;98376.72;105324;1268;61398;-79
2022/05/30 07:47:50;;;;;;;3.30;3.00;;;;;;;16.50;100.00;98374.24;105362;1268;61346;-78
2022/05/30 07:50:17;;;;;;;4.30;3.50;;;;;;;16.64;100.00;98378.83;105318;1268;61272;-78
2022/05/30 07:52:44;;;;;;;2.50;2.10;;;;;;;16.57;100.00;98383.78;105365;1268;73137;-79
2022/05/30 07:55:11;;;;;;;3.60;2.40;;;;;;;16.50;100.00;98384.60;105103;1268;61386;-79
2022/05/30 07:58:04;;;;;;;3.10;2.40;;;;;;;16.56;100.00;98384.55;105507;1268;61253;-79
2022/05/30 08:00:34;;;;;;;3.10;2.20;;;;;;;16.73;100.00;98383.18;105359;1268;75286;-80
2022/05/30 08:03:03;;;;;;;3.20;2.20;;;;;;;17.07;100.00;98382.25;106798;1269;67546;-80
2022/05/30 08:05:30;;;;;;;2.10;1.90;;;;;;;17.04;100.00;98385.45;106989;1268;73190;-78
2022/05/30 08:07:57;;;;;;;2.70;2.10;;;;;;;16.86;100.00;98389.63;106467;1268;61297;-78
2022/05/30 08:10:24;;;;;;;3.00;2.10;;;;;;;16.77;100.00;98390.17;105374;1268;61376;-79
2022/05/30 08:12:50;;;;;;;2.40;2.20;;;;;;;16.82;100.00;98388.16;105386;1268;75295;-79
2022/05/30 08:15:17;;;;;;;3.10;1.90;;;;;;;16.93;100.00;98386.16;105109;1268;69169;-80
2022/05/30 08:17:44;;;;;;;2.30;2.10;;;;;;;17.03;100.00;98395.92;105280;1269;73930;-78
2022/05/30 08:20:13;;;;;;;2.30;1.90;;;;;;;16.92;100.00;98396.76;105334;1268;61294;-79
2022/05/30 08:22:40;;;;;;;2.30;2.00;;;;;;;16.86;100.00;98401.66;105359;1268;61166;-80
2022/05/30 08:25:16;;;;;;;2.30;2.10;;;;;;;17.13;100.00;98403.29;105159;1269;74665;-79
2022/05/30 08:27:44;;;;;;;3.60;1.70;;;;;;;17.42;100.00;98402.52;105385;1268;69125;-79
2022/05/30 08:30:16;;;;;;;2.80;1.90;;;;;;;17.78;100.00;98401.91;105385;1268;73346;-79
2022/05/30 08:32:44;;;;;;;2.30;1.90;;;;;;;18.09;100.00;98400.60;105477;1268;61279;-79
2022/05/30 08:35:14;;;;;;;2.50;2.30;;;;;;;17.95;100.00;98407.94;105360;1268;62122;-80
2022/05/30 08:37:42;;;;;;;3.30;2.20;;;;;;;17.65;100.00;98412.29;105547;1268;76480;-79
2022/05/30 08:43:03;;;;;;;2.20;1.40;;;;;;;17.63;99.36;98418.59;105294;1268;71574;-80
2022/05/30 08:45:30;;;;;;;3.20;1.60;;;;;;;17.33;100.00;98420.64;105258;1268;61191;-80
2022/05/30 08:47:59;;;;;;;2.30;1.60;;;;;;;17.19;99.79;98425.56;104995;1269;61172;-78
2022/05/30 08:50:35;;;;;;;1.80;1.60;;;;;;;17.13;100.00;98425.98;105313;1268;76187;-79
2022/05/30 08:53:23;;;;;;;3.80;1.60;;;;;;;17.25;100.00;98427.05;105340;1268;69655;-78
2022/05/30 08:56:02;;;;;;;2.50;1.20;;;;;;;17.51;100.00;98426.52;105275;1268;74301;-79
2022/05/30 08:58:47;;;;;;;1.40;1.30;;;;;;;17.91;100.00;98423.69;105341;1268;61387;-76
2022/05/30 09:01:25;;;;;;;3.40;1.30;;;;;;;18.26;100.00;98424.30;105301;1268;62158;-78
2022/05/30 09:04:09;;;;;;;1.50;1.10;;;;;;;18.51;99.37;98421.04;105319;1268;76264;-78
2022/05/30 09:06:42;;;;;;;1.50;1.00;;;;;;;18.59;97.49;98424.99;105296;1268;69143;-78
2022/05/30 09:09:47;;;;;;;3.20;1.40;;;;;;;18.62;97.02;98428.66;105318;1268;74160;-79
2022/05/30 09:12:28;;;;;;;2.00;1.20;;;;;;;18.80;97.85;98424.73;105073;1268;61203;-78
2022/05/30 09:15:07;;;;;;;2.80;1.30;;;;;;;19.16;98.15;98424.38;105374;1267;61212;-78
2022/05/30 09:18:01;;;;;;;2.50;1.10;;;;;;;19.40;97.72;98422.37;105317;1268;75287;-79
2022/05/30 09:20:31;;;;;;;3.50;1.90;;;;;;;19.37;96.72;98429.20;105339;1268;70087;-78
2022/05/30 09:23:00;;;;;;;;;;;;;;;19.35;95.22;98430.60;105482;1268;74656;-78
2022/05/30 09:25:57;;;;;;;1.70;1.50;;;;;;;19.39;93.32;98430.04;105302;1268;61290;-77
2022/05/30 09:28:26;;;;;;;2.60;1.80;;;;;;;19.43;94.92;98432.87;105337;1268;61281;-79
2022/05/30 09:31:10;;;;;;;3.20;1.40;;;;;;;19.31;94.54;98439.08;105305;1268;75236;-78
2022/05/30 09:33:43;;;;;;;3.90;1.80;;;;;;;18.93;91.50;98446.69;105470;1267;70730;-78
2022/05/30 09:36:10;;;;;;;1.70;1.60;;;;;;;18.64;89.00;98447.52;105222;1269;74352;-79
2022/05/30 09:38:45;;;;;;;2.10;1.80;;;;;;;18.43;91.17;98451.64;105299;1268;61304;-78
2022/05/30 09:41:24;;;;;;;2.30;1.90;;;;;;;18.36;90.94;98462.94;105323;1268;61729;-77
2022/05/30 09:44:04;;;;;;;3.00;2.80;;;;;;;18.73;92.53;98452.46;105513;1268;75492;-80
2022/05/30 09:46:50;;;;;;;2.60;2.40;;;;;;;19.00;89.92;98448.65;105350;1268;70148;-78
2022/05/30 09:49:20;;;;;;;2.90;2.70;;;;;;;19.03;90.34;98451.20;104812;1276;73349;-77
2022/05/30 09:51:52;;;;;;;3.00;2.80;;;;;;;19.21;91.06;98450.67;104850;1277;61399;-78
2022/05/30 09:54:24;;;;;;;2.60;2.40;;;;;;;19.17;89.96;98452.04;104837;1277;62159;-77
2022/05/30 09:57:14;;;;;;;3.00;2.50;;;;;;;19.10;90.74;98450.50;104876;1277;75230;-78
2022/05/30 09:59:44;;;;;;;2.90;2.60;;;;;;;19.16;90.92;98446.53;104892;1277;69046;-79
2022/05/30 10:02:24;;;;;;;3.80;2.80;;;;;;;19.22;88.29;98447.46;104922;1277;73270;-79
2022/05/30 10:05:02;;;;;;;3.10;2.80;;;;;;;19.04;87.50;98443.67;104851;1277;61517;-81
2022/05/30 10:07:29;;;;;;;3.80;3.50;;;;;;;19.11;88.82;98443.64;104834;1277;61248;-78
2022/05/30 10:10:18;;;;;;;3.00;2.70;;;;;;;19.23;87.67;98448.05;104783;1277;75085;-79
2022/05/30 10:12:57;;;;;;;3.30;2.70;;;;;;;19.14;88.96;98449.27;104823;1277;70863;-78
2022/05/30 10:15:31;;;;;;;3.40;3.10;;;;;;;19.15;88.91;98453.12;104897;1276;73173;-77
2022/05/30 10:18:16;;;;;;;2.90;2.30;;;;;;;19.46;89.82;98451.45;104805;1277;62845;-78
2022/05/30 10:21:22;;;;;;;2.60;2.40;;;;;;;19.40;88.53;98453.75;104846;1275;62004;-79
2022/05/30 10:30:08;;;;;;;3.10;2.80;;;;;;;19.02;85.48;98459.95;105332;1268;72721;-77
2022/05/30 10:32:51;;;;;;;2.90;2.30;;;;;;;19.03;86.38;98455.11;105316;1268;61356;-79
2022/05/30 10:35:26;;;;;;;3.50;2.30;;;;;;;18.93;85.30;98454.63;105387;1268;61235;-78
2022/05/30 10:38:47;;;;;;;5.70;2.50;;;;;;;18.84;86.94;98453.75;105030;1269;76646;-79
2022/05/30 10:41:25;;;;;;;2.90;2.20;;;;;;;18.86;86.89;98453.63;104852;1277;70441;-77
2022/05/30 10:44:15;;;;;;;3.20;2.40;;;;;;;19.02;85.28;98450.73;104890;1277;73140;-78
2022/05/30 10:46:49;;;;;;;;;;;;;;;19.21;82.49;98452.64;104382;1277;63109;-77
2022/05/30 10:49:21;;;;;;;5.20;2.80;;;;;;;19.22;82.12;98453.81;104524;1279;61333;-77
2022/05/30 10:51:54;;;;;;;2.30;2.10;;;;;;;19.51;80.53;98459.13;104887;1277;76364;-79
2022/05/30 10:54:34;;;;;;;3.70;2.50;;;;;;;19.70;80.86;98452.55;104853;1277;69349;-76
2022/05/30 10:57:41;;;;;;;3.10;2.30;;;;;;;19.72;77.72;98452.17;104818;1277;73401;-78
2022/05/30 11:00:18;;;;;;;3.20;2.00;;;;;;;19.52;76.08;98457.64;104193;1282;61389;-80
2022/05/30 11:03:03;;;;;;;5.00;3.90;;;;;;;19.45;77.34;98453.84;104107;1282;61503;-78
2022/05/30 11:05:29;;;;;;;3.20;2.90;;;;;;;19.19;77.02;98454.63;104074;1282;75421;-77
2022/05/30 11:08:28;;;;;;;4.30;2.60;;;;;;;18.87;76.09;98458.87;104134;1284;61450;-77
2022/05/30 11:11:13;;;;;;;3.20;2.60;;;;;;;18.64;76.83;98458.36;104079;1282;74205;-79
2022/05/30 11:13:48;;;;;;;2.80;2.40;;;;;;;18.56;77.31;98457.40;104051;1282;61316;-77
2022/05/30 11:16:41;;;;;;;3.70;2.40;;;;;;;18.53;77.04;98460.27;104636;1277;61346;-78
2022/05/30 11:19:12;;;;;;;3.90;2.70;;;;;;;18.47;77.18;98458.75;104841;1276;74797;-75
2022/05/30 11:21:48;;;;;;;3.10;2.80;;;;;;;18.57;77.27;98459.96;104833;1277;69350;-77
2022/05/30 11:24:15;;;;;;;3.80;2.50;;;;;;;18.59;77.24;98455.59;104824;1277;74220;-77
2022/05/30 11:27:03;;;;;;;3.00;2.60;;;;;;;18.65;76.48;98451.77;104863;1277;61368;-78
2022/05/30 11:30:13;;;;;;;2.40;2.20;;;;;;;18.63;75.57;98452.99;104786;1277;61850;-77
2022/05/30 11:33:04;;;;;;;3.00;2.70;;;;;;;18.54;75.84;98459.23;104841;1277;74675;-77
2022/05/30 11:35:35;;;;;;;2.50;2.30;;;;;;;18.69;75.65;98459.27;104821;1277;70308;-77
2022/05/30 11:38:44;;;;;;;2.40;2.00;;;;;;;18.93;75.02;98459.35;105170;1269;73249;-78
2022/05/30 11:41:22;;;;;;;3.20;2.90;;;;;;;19.18;69.69;98458.15;105346;1268;61364;-77
2022/05/30 11:44:11;;;;;;;2.70;2.50;;;;;;;19.18;68.43;98459.96;105325;1268;61259;-79
2022/05/30 11:47:02;;;;;;;2.70;2.40;;;;;;;19.23;67.88;98466.77;105002;1269;74798;-78
2022/05/30 11:49:58;;;;;;;3.40;2.10;;;;;;;19.50;66.80;98467.69;105329;1268;69305;-78
2022/05/30 11:53:19;;;;;;;3.20;2.40;;;;;;;19.51;66.89;98468.55;105443;1268;72580;-78
2022/05/30 11:56:01;;;;;;;2.90;2.50;;;;;;;19.26;67.82;98477.05;104883;1277;61365;-78